sensor_id;sensor_type;location;lat;lon;timestamp;P1;P2;P0
78512;PMS5003;67809;55.034;73.462;2024-03-23T00:53:30;36.00;29.00;20.00
78512;PMS5003;67809;55.034;73.462;2024-03-23T00:55:56;36.00;29.00;20.00
78512;PMS5003;67809;55.034;73.462;2024-03-23T00:58:22;31.50;26.75;19.25
78512;PMS5003;67809;55.034;73.462;2024-03-23T01:00:49;34.00;28.00;19.00
78512;PMS5003;67809;55.034;73.462;2024-03-23T01:03:15;33.00;26.50;19.00
78512;PMS5003;67809;55.034;73.462;2024-03-23T01:05:41;35.67;29.00;20.33
78512;PMS5003;67809;55.034;73.462;2024-03-23T01:08:27;41.75;33.00;23.00
78512;PMS5003;67809;55.034;73.462;2024-03-23T01:10:56;36.50;30.00;20.25
78512;PMS5003;67809;55.034;73.462;2024-03-23T01:13:23;39.25;32.00;21.00
78512;PMS5003;67809;55.034;73.462;2024-03-23T01:15:50;40.33;30.00;21.00
78512;PMS5003;67809;55.034;73.462;2024-03-23T01:18:17;45.00;35.00;23.00
78512;PMS5003;67809;55.034;73.462;2024-03-23T01:20:44;43.50;35.00;24.00
78512;PMS5003;67809;55.034;73.462;2024-03-23T01:23:10;39.75;31.25;21.00
78512;PMS5003;67809;55.034;73.462;2024-03-23T01:25:36;43.50;34.50;24.00
78512;PMS5003;67809;55.034;73.462;2024-03-23T01:28:03;47.00;38.00;24.00
78512;PMS5003;67809;55.034;73.462;2024-03-23T01:30:29;51.00;38.50;25.00
78512;PMS5003;67809;55.034;73.462;2024-03-23T01:32:56;50.00;37.75;25.00
78512;PMS5003;67809;55.034;73.462;2024-03-23T01:35:22;51.00;39.00;25.00
78512;PMS5003;67809;55.034;73.462;2024-03-23T01:37:48;52.25;40.50;26.00
78512;PMS5003;67809;55.034;73.462;2024-03-23T01:40:16;56.75;44.00;29.00
78512;PMS5003;67809;55.034;73.462;2024-03-23T01:42:42;54.00;42.00;26.00
78512;PMS5003;67809;55.034;73.462;2024-03-23T01:45:09;46.50;37.00;24.25
78512;PMS5003;67809;55.034;73.462;2024-03-23T01:47:38;52.50;40.00;25.25
78512;PMS5003;67809;55.034;73.462;2024-03-23T01:50:04;49.00;36.75;24.00
78512;PMS5003;67809;55.034;73.462;2024-03-23T01:52:30;50.00;38.50;25.50
78512;PMS5003;67809;55.034;73.462;2024-03-23T01:54:56;48.33;37.00;24.67
78512;PMS5003;67809;55.034;73.462;2024-03-23T01:57:23;47.00;37.25;23.75
78512;PMS5003;67809;55.034;73.462;2024-03-23T01:59:49;48.50;38.00;25.00
78512;PMS5003;67809;55.034;73.462;2024-03-23T02:02:24;45.25;34.75;23.00
78512;PMS5003;67809;55.034;73.462;2024-03-23T02:04:51;49.50;37.00;26.00
78512;PMS5003;67809;55.034;73.462;2024-03-23T02:07:17;49.00;38.75;25.00
78512;PMS5003;67809;55.034;73.462;2024-03-23T02:09:43;52.00;39.25;25.00
78512;PMS5003;67809;55.034;73.462;2024-03-23T02:12:09;53.25;40.50;27.75
78512;PMS5003;67809;55.034;73.462;2024-03-23T02:14:36;50.25;38.50;25.50
78512;PMS5003;67809;55.034;73.462;2024-03-23T02:17:02;48.00;37.75;25.00
78512;PMS5003;67809;55.034;73.462;2024-03-23T02:19:29;51.00;39.00;26.75
78512;PMS5003;67809;55.034;73.462;2024-03-23T02:21:55;50.25;40.00;27.00
78512;PMS5003;67809;55.034;73.462;2024-03-23T02:24:21;54.50;42.00;27.00
78512;PMS5003;67809;55.034;73.462;2024-03-23T02:26:47;47.00;36.67;24.00
78512;PMS5003;67809;55.034;73.462;2024-03-23T02:29:14;50.00;39.00;25.75
78512;PMS5003;67809;55.034;73.462;2024-03-23T02:31:40;51.00;38.50;25.25
78512;PMS5003;67809;55.034;73.462;2024-03-23T02:34:06;45.00;35.50;24.00
78512;PMS5003;67809;55.034;73.462;2024-03-23T02:36:33;52.00;41.00;27.00
78512;PMS5003;67809;55.034;73.462;2024-03-23T02:38:59;53.25;39.50;25.00
78512;PMS5003;67809;55.034;73.462;2024-03-23T02:41:26;45.75;35.00;23.00
78512;PMS5003;67809;55.034;73.462;2024-03-23T02:43:52;38.50;31.75;20.50
78512;PMS5003;67809;55.034;73.462;2024-03-23T02:46:18;47.00;36.33;23.00
78512;PMS5003;67809;55.034;73.462;2024-03-23T02:48:45;50.00;38.50;25.00
78512;PMS5003;67809;55.034;73.462;2024-03-23T02:51:11;58.00;43.00;29.00
78512;PMS5003;67809;55.034;73.462;2024-03-23T02:53:37;51.75;42.00;27.00
78512;PMS5003;67809;55.034;73.462;2024-03-23T02:56:03;60.00;45.00;29.00
78512;PMS5003;67809;55.034;73.462;2024-03-23T02:58:30;54.75;42.00;27.25
78512;PMS5003;67809;55.034;73.462;2024-03-23T03:00:56;52.50;40.00;26.00
78512;PMS5003;67809;55.034;73.462;2024-03-23T03:03:22;50.75;39.75;26.25
78512;PMS5003;67809;55.034;73.462;2024-03-23T03:05:54;55.33;42.00;27.00
78512;PMS5003;67809;55.034;73.462;2024-03-23T03:08:20;50.00;39.00;26.00
78512;PMS5003;67809;55.034;73.462;2024-03-23T03:10:46;53.25;42.00;28.25
78512;PMS5003;67809;55.034;73.462;2024-03-23T03:13:13;52.50;39.50;25.50
78512;PMS5003;67809;55.034;73.462;2024-03-23T03:15:45;52.00;40.50;27.00
78512;PMS5003;67809;55.034;73.462;2024-03-23T03:18:11;53.00;41.33;27.00
78512;PMS5003;67809;55.034;73.462;2024-03-23T03:20:38;49.75;39.25;26.25
78512;PMS5003;67809;55.034;73.462;2024-03-23T03:23:05;56.00;44.00;28.00
78512;PMS5003;67809;55.034;73.462;2024-03-23T03:25:31;53.00;42.00;28.00
78512;PMS5003;67809;55.034;73.462;2024-03-23T03:27:58;49.75;38.00;25.75
78512;PMS5003;67809;55.034;73.462;2024-03-23T03:30:24;56.25;43.00;28.00
78512;PMS5003;67809;55.034;73.462;2024-03-23T03:32:51;56.00;42.50;27.75
78512;PMS5003;67809;55.034;73.462;2024-03-23T03:35:17;59.75;45.00;28.25
78512;PMS5003;67809;55.034;73.462;2024-03-23T03:37:44;57.67;43.67;29.00
78512;PMS5003;67809;55.034;73.462;2024-03-23T03:40:11;57.75;44.00;28.00
78512;PMS5003;67809;55.034;73.462;2024-03-23T03:42:37;58.75;43.00;27.75
78512;PMS5003;67809;55.034;73.462;2024-03-23T03:45:04;60.00;45.00;29.00
78512;PMS5003;67809;55.034;73.462;2024-03-23T03:47:30;56.00;43.00;28.00
78512;PMS5003;67809;55.034;73.462;2024-03-23T03:49:56;49.25;38.50;24.75
78512;PMS5003;67809;55.034;73.462;2024-03-23T03:52:22;52.75;41.50;27.00
78512;PMS5003;67809;55.034;73.462;2024-03-23T03:54:49;52.25;40.50;26.00
78512;PMS5003;67809;55.034;73.462;2024-03-23T03:57:15;53.00;39.50;25.50
78512;PMS5003;67809;55.034;73.462;2024-03-23T03:59:41;51.25;39.25;26.00
78512;PMS5003;67809;55.034;73.462;2024-03-23T04:02:08;49.75;39.00;27.00
78512;PMS5003;67809;55.034;73.462;2024-03-23T04:04:34;55.00;44.00;29.00
78512;PMS5003;67809;55.034;73.462;2024-03-23T04:07:00;51.25;39.75;25.50
78512;PMS5003;67809;55.034;73.462;2024-03-23T04:09:27;55.00;42.00;27.00
78512;PMS5003;67809;55.034;73.462;2024-03-23T04:11:53;48.00;38.00;24.75
78512;PMS5003;67809;55.034;73.462;2024-03-23T04:14:19;52.00;38.00;26.00
78512;PMS5003;67809;55.034;73.462;2024-03-23T04:16:46;44.67;36.00;23.67
78512;PMS5003;67809;55.034;73.462;2024-03-23T04:19:12;56.00;44.00;30.00
78512;PMS5003;67809;55.034;73.462;2024-03-23T04:21:38;53.75;40.00;26.00
78512;PMS5003;67809;55.034;73.462;2024-03-23T04:24:04;49.50;39.00;26.00
78512;PMS5003;67809;55.034;73.462;2024-03-23T04:26:39;41.50;33.00;23.00
78512;PMS5003;67809;55.034;73.462;2024-03-23T04:29:06;47.00;36.00;24.00
78512;PMS5003;67809;55.034;73.462;2024-03-23T04:31:32;50.50;38.00;25.00
78512;PMS5003;67809;55.034;73.462;2024-03-23T04:34:01;46.50;36.75;23.00
78512;PMS5003;67809;55.034;73.462;2024-03-23T04:36:27;44.50;35.00;23.50
78512;PMS5003;67809;55.034;73.462;2024-03-23T04:38:55;41.67;33.00;22.00
78512;PMS5003;67809;55.034;73.462;2024-03-23T04:41:21;46.25;36.00;23.50
78512;PMS5003;67809;55.034;73.462;2024-03-23T04:43:47;47.00;37.25;25.00
78512;PMS5003;67809;55.034;73.462;2024-03-23T04:46:13;42.00;33.50;21.75
78512;PMS5003;67809;55.034;73.462;2024-03-23T04:48:40;46.25;35.50;23.50
78512;PMS5003;67809;55.034;73.462;2024-03-23T04:51:06;43.75;34.50;24.00
78512;PMS5003;67809;55.034;73.462;2024-03-23T04:53:32;50.50;38.00;25.00
78512;PMS5003;67809;55.034;73.462;2024-03-23T04:55:59;48.50;38.00;26.00
78512;PMS5003;67809;55.034;73.462;2024-03-23T04:58:25;49.00;38.00;25.00
78512;PMS5003;67809;55.034;73.462;2024-03-23T05:00:54;53.75;38.00;25.00
78512;PMS5003;67809;55.034;73.462;2024-03-23T05:03:21;48.00;38.00;24.25
78512;PMS5003;67809;55.034;73.462;2024-03-23T05:05:48;44.75;35.00;24.00
78512;PMS5003;67809;55.034;73.462;2024-03-23T05:08:16;47.67;38.00;25.00
78512;PMS5003;67809;55.034;73.462;2024-03-23T05:10:43;45.50;36.50;25.00
78512;PMS5003;67809;55.034;73.462;2024-03-23T05:13:10;51.00;39.00;26.25
78512;PMS5003;67809;55.034;73.462;2024-03-23T05:15:36;44.00;35.25;23.00
78512;PMS5003;67809;55.034;73.462;2024-03-23T05:18:02;45.33;36.00;24.00
78512;PMS5003;67809;55.034;73.462;2024-03-23T05:20:29;44.50;35.00;25.00
78512;PMS5003;67809;55.034;73.462;2024-03-23T05:22:55;39.00;32.00;22.00
78512;PMS5003;67809;55.034;73.462;2024-03-23T05:25:21;37.50;30.75;21.50
78512;PMS5003;67809;55.034;73.462;2024-03-23T05:27:48;43.25;34.75;23.00
78512;PMS5003;67809;55.034;73.462;2024-03-23T05:30:15;46.25;37.00;26.00
78512;PMS5003;67809;55.034;73.462;2024-03-23T05:32:41;48.25;38.25;26.00
78512;PMS5003;67809;55.034;73.462;2024-03-23T05:35:09;45.00;34.75;23.75
78512;PMS5003;67809;55.034;73.462;2024-03-23T05:37:36;42.00;34.00;24.00
78512;PMS5003;67809;55.034;73.462;2024-03-23T05:40:03;43.00;34.50;23.50
78512;PMS5003;67809;55.034;73.462;2024-03-23T05:42:29;49.50;37.00;25.00
78512;PMS5003;67809;55.034;73.462;2024-03-23T05:44:56;44.50;34.50;23.50
78512;PMS5003;67809;55.034;73.462;2024-03-23T05:47:22;44.25;35.00;24.00
78512;PMS5003;67809;55.034;73.462;2024-03-23T05:49:48;46.00;35.00;24.00
78512;PMS5003;67809;55.034;73.462;2024-03-23T05:52:14;39.25;32.00;22.00
78512;PMS5003;67809;55.034;73.462;2024-03-23T05:54:41;32.00;26.50;18.25
78512;PMS5003;67809;55.034;73.462;2024-03-23T05:57:08;33.00;28.00;20.00
78512;PMS5003;67809;55.034;73.462;2024-03-23T05:59:35;31.00;25.00;17.67
78512;PMS5003;67809;55.034;73.462;2024-03-23T06:02:01;40.00;31.00;21.00
78512;PMS5003;67809;55.034;73.462;2024-03-23T06:04:27;41.00;33.00;23.00
78512;PMS5003;67809;55.034;73.462;2024-03-23T06:06:53;46.00;36.00;25.00
78512;PMS5003;67809;55.034;73.462;2024-03-23T06:09:20;44.25;35.50;25.00
78512;PMS5003;67809;55.034;73.462;2024-03-23T06:11:46;40.25;32.00;21.75
78512;PMS5003;67809;55.034;73.462;2024-03-23T06:14:12;36.75;29.75;19.75
78512;PMS5003;67809;55.034;73.462;2024-03-23T06:16:38;35.00;29.00;18.00
78512;PMS5003;67809;55.034;73.462;2024-03-23T06:19:04;34.00;26.67;19.00
78512;PMS5003;67809;55.034;73.462;2024-03-23T06:21:32;33.25;28.00;18.75
78512;PMS5003;67809;55.034;73.462;2024-03-23T06:23:59;33.00;28.00;20.00
78512;PMS5003;67809;55.034;73.462;2024-03-23T06:26:25;36.00;29.75;20.00
78512;PMS5003;67809;55.034;73.462;2024-03-23T06:28:53;33.00;27.50;19.00
78512;PMS5003;67809;55.034;73.462;2024-03-23T06:31:19;34.00;28.00;19.00
78512;PMS5003;67809;55.034;73.462;2024-03-23T06:33:46;29.50;25.00;17.50
78512;PMS5003;67809;55.034;73.462;2024-03-23T06:36:12;33.75;28.00;18.00
78512;PMS5003;67809;55.034;73.462;2024-03-23T06:38:38;33.00;27.00;19.00
78512;PMS5003;67809;55.034;73.462;2024-03-23T06:41:04;34.00;28.00;19.25
78512;PMS5003;67809;55.034;73.462;2024-03-23T06:43:31;38.00;30.00;20.00
78512;PMS5003;67809;55.034;73.462;2024-03-23T06:45:57;36.00;30.00;21.00
78512;PMS5003;67809;55.034;73.462;2024-03-23T06:48:23;33.00;27.33;19.67
78512;PMS5003;67809;55.034;73.462;2024-03-23T06:50:54;30.50;26.00;18.00
78512;PMS5003;67809;55.034;73.462;2024-03-23T06:53:21;34.75;29.00;20.00
78512;PMS5003;67809;55.034;73.462;2024-03-23T06:55:50;33.25;28.00;18.75
78512;PMS5003;67809;55.034;73.462;2024-03-23T06:58:19;30.33;25.00;18.00
78512;PMS5003;67809;55.034;73.462;2024-03-23T07:00:45;37.00;29.50;20.00
78512;PMS5003;67809;55.034;73.462;2024-03-23T07:03:11;35.00;28.00;19.00
78512;PMS5003;67809;55.034;73.462;2024-03-23T07:05:38;36.50;29.00;20.00
78512;PMS5003;67809;55.034;73.462;2024-03-23T07:08:04;36.00;29.00;19.67
78512;PMS5003;67809;55.034;73.462;2024-03-23T07:10:30;31.25;25.75;18.00
78512;PMS5003;67809;55.034;73.462;2024-03-23T07:12:57;32.00;27.00;18.00
78512;PMS5003;67809;55.034;73.462;2024-03-23T07:15:23;34.00;28.00;19.00
78512;PMS5003;67809;55.034;73.462;2024-03-23T07:17:49;30.00;24.00;16.25
78512;PMS5003;67809;55.034;73.462;2024-03-23T07:20:16;30.00;25.33;17.00
78512;PMS5003;67809;55.034;73.462;2024-03-23T07:22:42;35.00;27.00;19.00
78512;PMS5003;67809;55.034;73.462;2024-03-23T07:25:11;30.50;24.00;17.00
78512;PMS5003;67809;55.034;73.462;2024-03-23T07:27:38;28.50;24.50;17.00
78512;PMS5003;67809;55.034;73.462;2024-03-23T07:30:04;32.00;27.00;18.00
78512;PMS5003;67809;55.034;73.462;2024-03-23T07:32:31;29.00;24.00;16.00
78512;PMS5003;67809;55.034;73.462;2024-03-23T07:34:57;29.50;25.00;18.00
78512;PMS5003;67809;55.034;73.462;2024-03-23T07:37:23;24.50;20.00;13.25
78512;PMS5003;67809;55.034;73.462;2024-03-23T07:39:49;27.00;23.00;15.00
78512;PMS5003;67809;55.034;73.462;2024-03-23T07:42:16;26.50;21.75;15.25
78512;PMS5003;67809;55.034;73.462;2024-03-23T07:44:42;29.00;24.00;17.00
78512;PMS5003;67809;55.034;73.462;2024-03-23T07:47:08;24.50;21.50;15.25
78512;PMS5003;67809;55.034;73.462;2024-03-23T07:49:34;25.67;22.00;15.00
78512;PMS5003;67809;55.034;73.462;2024-03-23T07:52:00;25.00;22.00;16.00
78512;PMS5003;67809;55.034;73.462;2024-03-23T07:54:27;24.50;20.50;13.75
78512;PMS5003;67809;55.034;73.462;2024-03-23T07:56:53;28.00;22.00;16.00
78512;PMS5003;67809;55.034;73.462;2024-03-23T07:59:20;26.00;22.00;15.00
78512;PMS5003;67809;55.034;73.462;2024-03-23T08:01:46;23.00;20.00;14.00
78512;PMS5003;67809;55.034;73.462;2024-03-23T08:04:12;28.00;23.00;17.00
78512;PMS5003;67809;55.034;73.462;2024-03-23T08:06:39;33.00;26.00;17.00
78512;PMS5003;67809;55.034;73.462;2024-03-23T08:09:05;27.00;23.00;16.00
78512;PMS5003;67809;55.034;73.462;2024-03-23T08:11:31;26.50;21.00;15.00
78512;PMS5003;67809;55.034;73.462;2024-03-23T08:14:00;22.00;18.25;14.00
78512;PMS5003;67809;55.034;73.462;2024-03-23T08:16:27;22.00;18.00;12.50
78512;PMS5003;67809;55.034;73.462;2024-03-23T08:18:54;29.00;24.00;16.00
78512;PMS5003;67809;55.034;73.462;2024-03-23T08:21:23;33.00;27.00;19.00
78512;PMS5003;67809;55.034;73.462;2024-03-23T08:23:51;31.00;26.00;18.00
78512;PMS5003;67809;55.034;73.462;2024-03-23T08:26:17;32.00;26.00;18.00
78512;PMS5003;67809;55.034;73.462;2024-03-23T08:28:44;20.33;17.00;12.00
78512;PMS5003;67809;55.034;73.462;2024-03-23T08:31:10;18.00;16.00;11.00
78512;PMS5003;67809;55.034;73.462;2024-03-23T08:33:37;20.00;17.50;12.75
78512;PMS5003;67809;55.034;73.462;2024-03-23T08:36:07;22.00;19.00;14.00
78512;PMS5003;67809;55.034;73.462;2024-03-23T08:38:34;21.50;18.00;13.00
78512;PMS5003;67809;55.034;73.462;2024-03-23T08:41:01;23.00;20.00;15.00
78512;PMS5003;67809;55.034;73.462;2024-03-23T08:43:32;26.00;23.00;16.00
78512;PMS5003;67809;55.034;73.462;2024-03-23T08:46:08;25.00;22.00;16.00
78512;PMS5003;67809;55.034;73.462;2024-03-23T08:48:35;30.75;25.00;17.00
78512;PMS5003;67809;55.034;73.462;2024-03-23T08:51:02;29.00;23.00;15.00
78512;PMS5003;67809;55.034;73.462;2024-03-23T08:53:29;28.00;23.00;16.00
78512;PMS5003;67809;55.034;73.462;2024-03-23T08:55:56;26.00;22.00;14.00
78512;PMS5003;67809;55.034;73.462;2024-03-23T08:58:23;24.00;20.00;14.00
78512;PMS5003;67809;55.034;73.462;2024-03-23T09:00:50;24.67;21.00;16.00
78512;PMS5003;67809;55.034;73.462;2024-03-23T09:03:17;22.00;19.00;13.00
78512;PMS5003;67809;55.034;73.462;2024-03-23T09:05:43;19.00;16.00;11.25
78512;PMS5003;67809;55.034;73.462;2024-03-23T09:08:09;21.00;17.50;13.00
78512;PMS5003;67809;55.034;73.462;2024-03-23T09:10:39;17.00;14.00;11.00
78512;PMS5003;67809;55.034;73.462;2024-03-23T09:13:05;28.00;23.75;16.00
78512;PMS5003;67809;55.034;73.462;2024-03-23T09:15:36;23.00;20.00;14.00
78512;PMS5003;67809;55.034;73.462;2024-03-23T09:18:03;28.00;22.75;15.00
78512;PMS5003;67809;55.034;73.462;2024-03-23T09:20:32;24.00;21.00;15.67
78512;PMS5003;67809;55.034;73.462;2024-03-23T09:22:58;26.00;23.00;15.50
78512;PMS5003;67809;55.034;73.462;2024-03-23T09:25:24;23.50;20.00;14.00
78512;PMS5003;67809;55.034;73.462;2024-03-23T09:27:51;25.00;21.00;13.50
78512;PMS5003;67809;55.034;73.462;2024-03-23T09:30:17;23.00;21.00;14.67
78512;PMS5003;67809;55.034;73.462;2024-03-23T09:32:43;26.00;22.00;14.75
78512;PMS5003;67809;55.034;73.462;2024-03-23T09:35:10;25.75;20.50;15.00
78512;PMS5003;67809;55.034;73.462;2024-03-23T09:37:37;21.25;18.75;14.00
78512;PMS5003;67809;55.034;73.462;2024-03-23T09:40:11;27.00;24.00;17.00
78512;PMS5003;67809;55.034;73.462;2024-03-23T09:42:37;26.00;23.75;17.00
78512;PMS5003;67809;55.034;73.462;2024-03-23T09:45:07;29.00;22.75;16.00
78512;PMS5003;67809;55.034;73.462;2024-03-23T09:47:37;26.00;22.00;16.00
78512;PMS5003;67809;55.034;73.462;2024-03-23T09:50:03;25.00;22.00;16.00
78512;PMS5003;67809;55.034;73.462;2024-03-23T09:52:31;22.25;19.75;12.75
78512;PMS5003;67809;55.034;73.462;2024-03-23T09:54:57;21.00;17.75;11.00
78512;PMS5003;67809;55.034;73.462;2024-03-23T09:57:23;17.00;15.00;10.00
78512;PMS5003;67809;55.034;73.462;2024-03-23T09:59:50;15.25;14.00;10.00
78512;PMS5003;67809;55.034;73.462;2024-03-23T10:02:16;14.50;12.00;9.00
78512;PMS5003;67809;55.034;73.462;2024-03-23T10:04:43;15.75;13.00;9.00
78512;PMS5003;67809;55.034;73.462;2024-03-23T10:07:13;19.00;17.00;10.00
78512;PMS5003;67809;55.034;73.462;2024-03-23T10:09:40;14.00;13.00;9.00
78512;PMS5003;67809;55.034;73.462;2024-03-23T10:12:13;20.00;17.00;12.00
78512;PMS5003;67809;55.034;73.462;2024-03-23T10:14:40;24.25;20.00;15.00
78512;PMS5003;67809;55.034;73.462;2024-03-23T10:17:25;26.50;22.00;16.00
78512;PMS5003;67809;55.034;73.462;2024-03-23T10:19:51;29.00;25.00;17.00
78512;PMS5003;67809;55.034;73.462;2024-03-23T10:22:19;29.00;24.00;16.00
78512;PMS5003;67809;55.034;73.462;2024-03-23T10:24:45;32.25;26.00;17.00
78512;PMS5003;67809;55.034;73.462;2024-03-23T10:27:16;27.00;21.75;16.00
78512;PMS5003;67809;55.034;73.462;2024-03-23T10:29:46;25.00;22.00;16.00
78512;PMS5003;67809;55.034;73.462;2024-03-23T10:32:13;28.25;23.00;15.75
78512;PMS5003;67809;55.034;73.462;2024-03-23T10:34:40;28.75;23.00;16.00
78512;PMS5003;67809;55.034;73.462;2024-03-23T10:37:07;30.00;25.00;17.00
78512;PMS5003;67809;55.034;73.462;2024-03-23T10:39:37;28.00;23.00;16.00
78512;PMS5003;67809;55.034;73.462;2024-03-23T10:42:04;27.00;23.67;17.00
78512;PMS5003;67809;55.034;73.462;2024-03-23T10:44:31;31.50;25.75;18.00
78512;PMS5003;67809;55.034;73.462;2024-03-23T10:46:58;27.00;24.00;17.00
78512;PMS5003;67809;55.034;73.462;2024-03-23T10:49:28;30.00;25.00;18.00
78512;PMS5003;67809;55.034;73.462;2024-03-23T10:51:59;26.33;23.00;16.00
78512;PMS5003;67809;55.034;73.462;2024-03-23T10:54:25;26.00;23.00;16.00
78512;PMS5003;67809;55.034;73.462;2024-03-23T10:57:14;26.00;23.00;15.00
78512;PMS5003;67809;55.034;73.462;2024-03-23T10:59:38;27.00;22.00;15.00
78512;PMS5003;67809;55.034;73.462;2024-03-23T11:02:05;23.25;20.00;15.00
78512;PMS5003;67809;55.034;73.462;2024-03-23T11:04:34;26.00;22.50;16.00
78512;PMS5003;67809;55.034;73.462;2024-03-23T11:07:01;24.75;20.75;13.00
78512;PMS5003;67809;55.034;73.462;2024-03-23T11:15:33;26.00;21.00;15.00
78512;PMS5003;67809;55.034;73.462;2024-03-23T11:17:40;24.00;21.00;14.00
78512;PMS5003;67809;55.034;73.462;2024-03-23T11:20:09;24.33;20.00;14.00
78512;PMS5003;67809;55.034;73.462;2024-03-23T11:25:04;29.75;25.00;17.00
78512;PMS5003;67809;55.034;73.462;2024-03-23T11:27:38;26.00;22.00;14.75
78512;PMS5003;67809;55.034;73.462;2024-03-23T11:30:23;28.75;23.25;15.00
78512;PMS5003;67809;55.034;73.462;2024-03-23T11:32:50;22.00;19.00;15.00
78512;PMS5003;67809;55.034;73.462;2024-03-23T11:38:03;31.50;25.00;17.75
78512;PMS5003;67809;55.034;73.462;2024-03-23T11:40:29;30.75;25.00;17.00
78512;PMS5003;67809;55.034;73.462;2024-03-23T11:43:07;32.33;27.00;18.00
78512;PMS5003;67809;55.034;73.462;2024-03-23T11:45:43;31.50;26.00;16.75
78512;PMS5003;67809;55.034;73.462;2024-03-23T11:48:10;28.75;25.00;17.00
78512;PMS5003;67809;55.034;73.462;2024-03-23T11:50:40;31.00;25.75;18.00
78512;PMS5003;67809;55.034;73.462;2024-03-23T11:53:14;34.33;28.33;18.67
78512;PMS5003;67809;55.034;73.462;2024-03-23T11:55:44;36.00;29.25;20.00
78512;PMS5003;67809;55.034;73.462;2024-03-23T11:58:11;34.25;27.25;18.50
78512;PMS5003;67809;55.034;73.462;2024-03-23T12:00:38;32.00;25.75;18.00
78512;PMS5003;67809;55.034;73.462;2024-03-23T12:03:05;31.67;26.67;18.00
78512;PMS5003;67809;55.034;73.462;2024-03-23T12:05:31;33.25;28.00;18.50
78512;PMS5003;67809;55.034;73.462;2024-03-23T12:10:53;38.75;30.75;21.00
78512;PMS5003;67809;55.034;73.462;2024-03-23T12:13:20;33.00;28.00;18.00
78512;PMS5003;67809;55.034;73.462;2024-03-23T12:15:47;36.00;28.00;19.00
78512;PMS5003;67809;55.034;73.462;2024-03-23T12:18:13;28.00;24.00;16.75
78512;PMS5003;67809;55.034;73.462;2024-03-23T12:20:40;30.00;26.00;18.00
78512;PMS5003;67809;55.034;73.462;2024-03-23T12:23:15;33.00;27.00;19.00
78512;PMS5003;67809;55.034;73.462;2024-03-23T12:25:54;28.00;24.00;17.00
78512;PMS5003;67809;55.034;73.462;2024-03-23T12:28:20;29.25;25.00;18.00
78512;PMS5003;67809;55.034;73.462;2024-03-23T12:30:46;28.75;24.00;18.00
78512;PMS5003;67809;55.034;73.462;2024-03-23T12:33:13;28.00;24.00;17.00
78512;PMS5003;67809;55.034;73.462;2024-03-23T12:35:39;28.00;24.00;16.50
78512;PMS5003;67809;55.034;73.462;2024-03-23T12:38:05;27.00;22.00;16.00
78512;PMS5003;67809;55.034;73.462;2024-03-23T12:40:31;30.00;24.75;16.00
78512;PMS5003;67809;55.034;73.462;2024-03-23T12:43:17;32.33;25.33;17.00
78512;PMS5003;67809;55.034;73.462;2024-03-23T12:45:47;28.00;24.00;17.00
78512;PMS5003;67809;55.034;73.462;2024-03-23T12:48:13;28.25;24.00;17.00
78512;PMS5003;67809;55.034;73.462;2024-03-23T12:50:39;36.00;29.00;20.00
78512;PMS5003;67809;55.034;73.462;2024-03-23T12:53:06;41.50;33.00;22.00
78512;PMS5003;67809;55.034;73.462;2024-03-23T12:55:52;37.25;30.50;21.50
78512;PMS5003;67809;55.034;73.462;2024-03-23T12:58:18;39.50;31.75;22.00
78512;PMS5003;67809;55.034;73.462;2024-03-23T13:01:04;35.75;29.25;19.50
78512;PMS5003;67809;55.034;73.462;2024-03-23T13:03:32;35.00;29.00;20.00
78512;PMS5003;67809;55.034;73.462;2024-03-23T13:06:16;32.75;27.50;18.75
78512;PMS5003;67809;55.034;73.462;2024-03-23T13:08:43;33.00;27.25;18.00
78512;PMS5003;67809;55.034;73.462;2024-03-23T13:11:10;33.25;27.00;19.75
78512;PMS5003;67809;55.034;73.462;2024-03-23T13:13:36;40.33;31.67;22.00
78512;PMS5003;67809;55.034;73.462;2024-03-23T13:16:03;44.75;34.50;23.00
78512;PMS5003;67809;55.034;73.462;2024-03-23T13:18:48;38.50;30.25;20.75
78512;PMS5003;67809;55.034;73.462;2024-03-23T13:21:14;38.50;30.00;20.25
78512;PMS5003;67809;55.034;73.462;2024-03-23T13:23:59;40.00;32.00;21.00
78512;PMS5003;67809;55.034;73.462;2024-03-23T13:26:25;38.75;31.00;21.00
78512;PMS5003;67809;55.034;73.462;2024-03-23T13:29:06;37.75;30.00;20.00
78512;PMS5003;67809;55.034;73.462;2024-03-23T13:31:54;36.25;29.25;20.25
78512;PMS5003;67809;55.034;73.462;2024-03-23T13:34:20;37.00;29.50;21.25
78512;PMS5003;67809;55.034;73.462;2024-03-23T13:36:47;41.50;32.25;22.25
78512;PMS5003;67809;55.034;73.462;2024-03-23T13:39:32;37.25;30.25;22.00
78512;PMS5003;67809;55.034;73.462;2024-03-23T13:42:00;37.50;31.00;21.00
78512;PMS5003;67809;55.034;73.462;2024-03-23T13:44:26;37.00;30.50;20.25
78512;PMS5003;67809;55.034;73.462;2024-03-23T13:46:54;42.75;34.00;23.00
78512;PMS5003;67809;55.034;73.462;2024-03-23T13:52:05;45.00;35.00;23.00
78512;PMS5003;67809;55.034;73.462;2024-03-23T13:54:32;49.00;38.00;25.00
78512;PMS5003;67809;55.034;73.462;2024-03-23T13:57:18;53.75;39.25;25.25
78512;PMS5003;67809;55.034;73.462;2024-03-23T13:59:47;49.00;38.00;25.00
78512;PMS5003;67809;55.034;73.462;2024-03-23T14:02:14;49.75;39.75;26.00
78512;PMS5003;67809;55.034;73.462;2024-03-23T14:04:41;55.00;42.00;27.00
78512;PMS5003;67809;55.034;73.462;2024-03-23T14:07:07;58.75;45.00;30.00
78512;PMS5003;67809;55.034;73.462;2024-03-23T14:09:34;51.00;39.00;26.00
78512;PMS5003;67809;55.034;73.462;2024-03-23T14:12:01;50.00;39.00;27.00
78512;PMS5003;67809;55.034;73.462;2024-03-23T14:14:27;49.00;37.67;25.00
78512;PMS5003;67809;55.034;73.462;2024-03-23T14:16:54;47.50;36.25;23.50
78512;PMS5003;67809;55.034;73.462;2024-03-23T14:19:21;46.50;35.25;24.50
78512;PMS5003;67809;55.034;73.462;2024-03-23T14:21:47;46.00;36.00;23.25
78512;PMS5003;67809;55.034;73.462;2024-03-23T14:24:13;46.00;37.00;25.00
78512;PMS5003;67809;55.034;73.462;2024-03-23T14:26:39;48.50;38.50;24.75
78512;PMS5003;67809;55.034;73.462;2024-03-23T14:29:06;54.25;41.00;26.00
78512;PMS5003;67809;55.034;73.462;2024-03-23T14:31:34;59.25;44.00;29.00
78512;PMS5003;67809;55.034;73.462;2024-03-23T14:34:01;51.67;40.33;27.00
78512;PMS5003;67809;55.034;73.462;2024-03-23T14:36:27;50.00;39.75;26.25
78512;PMS5003;67809;55.034;73.462;2024-03-23T14:38:53;52.00;40.00;27.00
78512;PMS5003;67809;55.034;73.462;2024-03-23T14:41:19;52.50;39.75;26.75
78512;PMS5003;67809;55.034;73.462;2024-03-23T14:43:45;49.33;37.33;25.00
78512;PMS5003;67809;55.034;73.462;2024-03-23T14:46:15;49.00;36.50;24.50